sensor_id;sensor_type;location;lat;lon;timestamp;temperature;humidity
13470;DHT22;6807;48.682;9.032;2023-01-13T00:11:14;8.40;1.00
13470;DHT22;6807;48.682;9.032;2023-01-13T00:14:12;9.00;1.00
13470;DHT22;6807;48.682;9.032;2023-01-13T00:17:21;8.50;1.00
13470;DHT22;6807;48.682;9.032;2023-01-13T00:19:51;8.40;1.00
13470;DHT22;6807;48.682;9.032;2023-01-13T00:22:25;8.40;1.00
13470;DHT22;6807;48.682;9.032;2023-01-13T00:25:00;8.50;1.00
13470;DHT22;6807;48.682;9.032;2023-01-13T00:27:47;8.60;1.00
13470;DHT22;6807;48.682;9.032;2023-01-13T00:31:20;8.60;1.00
13470;DHT22;6807;48.682;9.032;2023-01-13T00:34:38;8.50;1.00
13470;DHT22;6807;48.682;9.032;2023-01-13T00:37:28;8.60;1.00
13470;DHT22;6807;48.682;9.032;2023-01-13T00:40:04;8.80;1.00
13470;DHT22;6807;48.682;9.032;2023-01-13T00:42:43;8.40;1.00
13470;DHT22;6807;48.682;9.032;2023-01-13T00:45:32;9.50;1.00
13470;DHT22;6807;48.682;9.032;2023-01-13T00:48:40;9.60;1.00
13470;DHT22;6807;48.682;9.032;2023-01-13T00:54:46;8.90;1.00
13470;DHT22;6807;48.682;9.032;2023-01-13T01:01:01;8.80;1.00
13470;DHT22;6807;48.682;9.032;2023-01-13T01:03:34;8.70;1.00
13470;DHT22;6807;48.682;9.032;2023-01-13T01:06:13;8.70;1.00
13470;DHT22;6807;48.682;9.032;2023-01-13T01:08:49;8.70;1.00
13470;DHT22;6807;48.682;9.032;2023-01-13T01:11:23;8.80;1.00
13470;DHT22;6807;48.682;9.032;2023-01-13T01:21:10;8.90;1.00
13470;DHT22;6807;48.682;9.032;2023-01-13T01:23:58;9.10;1.00
13470;DHT22;6807;48.682;9.032;2023-01-13T01:26:40;9.00;1.00
13470;DHT22;6807;48.682;9.032;2023-01-13T01:29:13;9.00;1.00
13470;DHT22;6807;48.682;9.032;2023-01-13T01:31:50;8.90;1.00
13470;DHT22;6807;48.682;9.032;2023-01-13T01:34:21;9.00;1.00
13470;DHT22;6807;48.682;9.032;2023-01-13T01:37:01;9.10;1.00
13470;DHT22;6807;48.682;9.032;2023-01-13T01:39:54;8.90;1.00
13470;DHT22;6807;48.682;9.032;2023-01-13T01:42:22;9.00;1.00
13470;DHT22;6807;48.682;9.032;2023-01-13T01:45:22;9.00;10.30
13470;DHT22;6807;48.682;9.032;2023-01-13T01:47:54;8.90;1.00
13470;DHT22;6807;48.682;9.032;2023-01-13T01:50:22;8.90;11.60
13470;DHT22;6807;48.682;9.032;2023-01-13T01:52:58;8.20;1.00
13470;DHT22;6807;48.682;9.032;2023-01-13T01:55:51;8.80;1.00
13470;DHT22;6807;48.682;9.032;2023-01-13T01:58:21;8.70;1.00
13470;DHT22;6807;48.682;9.032;2023-01-13T02:00:49;8.60;1.00
13470;DHT22;6807;48.682;9.032;2023-01-13T02:03:23;7.90;27.20
13470;DHT22;6807;48.682;9.032;2023-01-13T02:06:05;7.70;1.00
13470;DHT22;6807;48.682;9.032;2023-01-13T02:08:58;8.80;1.00
13470;DHT22;6807;48.682;9.032;2023-01-13T02:59:20;8.60;1.00
13470;DHT22;6807;48.682;9.032;2023-01-13T03:01:55;8.70;1.00
13470;DHT22;6807;48.682;9.032;2023-01-13T03:04:57;8.60;1.00
13470;DHT22;6807;48.682;9.032;2023-01-13T03:08:25;7.30;1.00
13470;DHT22;6807;48.682;9.032;2023-01-13T03:11:10;8.30;1.00
13470;DHT22;6807;48.682;9.032;2023-01-13T03:14:09;8.50;1.00
13470;DHT22;6807;48.682;9.032;2023-01-13T03:17:11;8.00;1.00
13470;DHT22;6807;48.682;9.032;2023-01-13T03:20:04;9.50;1.00
13470;DHT22;6807;48.682;9.032;2023-01-13T03:22:59;7.20;1.00
13470;DHT22;6807;48.682;9.032;2023-01-13T03:25:54;8.50;1.00
13470;DHT22;6807;48.682;9.032;2023-01-13T03:28:35;8.60;1.00
13470;DHT22;6807;48.682;9.032;2023-01-13T03:31:24;8.60;1.00
13470;DHT22;6807;48.682;9.032;2023-01-13T03:34:18;8.70;1.00
13470;DHT22;6807;48.682;9.032;2023-01-13T03:36:58;8.60;1.00
13470;DHT22;6807;48.682;9.032;2023-01-13T03:39:40;8.60;7.80
13470;DHT22;6807;48.682;9.032;2023-01-13T03:42:17;8.60;1.00
13470;DHT22;6807;48.682;9.032;2023-01-13T03:48:38;8.60;1.00
13470;DHT22;6807;48.682;9.032;2023-01-13T03:51:34;8.50;9.30
13470;DHT22;6807;48.682;9.032;2023-01-13T03:54:25;8.60;3.90
13470;DHT22;6807;48.682;9.032;2023-01-13T04:00:18;7.30;2.80
13470;DHT22;6807;48.682;9.032;2023-01-13T04:03:00;7.20;1.00
13470;DHT22;6807;48.682;9.032;2023-01-13T04:09:10;9.60;2.10
13470;DHT22;6807;48.682;9.032;2023-01-13T04:12:21;8.60;2.40
13470;DHT22;6807;48.682;9.032;2023-01-13T04:15:37;8.60;10.90
13470;DHT22;6807;48.682;9.032;2023-01-13T04:24:37;8.60;4.00
13470;DHT22;6807;48.682;9.032;2023-01-13T04:27:12;8.60;11.10
13470;DHT22;6807;48.682;9.032;2023-01-13T04:29:39;8.60;19.60
13470;DHT22;6807;48.682;9.032;2023-01-13T04:35:23;9.80;24.60
13470;DHT22;6807;48.682;9.032;2023-01-13T04:41:18;8.50;29.10
13470;DHT22;6807;48.682;9.032;2023-01-13T04:43:50;8.30;34.80
13470;DHT22;6807;48.682;9.032;2023-01-13T04:46:41;8.60;17.70
13470;DHT22;6807;48.682;9.032;2023-01-13T04:49:19;8.60;1.00
13470;DHT22;6807;48.682;9.032;2023-01-13T04:51:55;8.60;3.60
13470;DHT22;6807;48.682;9.032;2023-01-13T04:54:45;8.60;20.90
13470;DHT22;6807;48.682;9.032;2023-01-13T05:00:21;7.90;18.00
13470;DHT22;6807;48.682;9.032;2023-01-13T05:03:06;7.40;13.40
13470;DHT22;6807;48.682;9.032;2023-01-13T05:05:39;7.60;41.80
13470;DHT22;6807;48.682;9.032;2023-01-13T05:08:30;8.60;16.80
13470;DHT22;6807;48.682;9.032;2023-01-13T05:11:12;8.70;16.90
13470;DHT22;6807;48.682;9.032;2023-01-13T05:13:53;7.30;41.20
13470;DHT22;6807;48.682;9.032;2023-01-13T05:16:50;8.70;32.60
13470;DHT22;6807;48.682;9.032;2023-01-13T05:19:36;8.70;43.50
13470;DHT22;6807;48.682;9.032;2023-01-13T05:22:12;8.60;33.80
13470;DHT22;6807;48.682;9.032;2023-01-13T05:25:24;9.40;13.00
13470;DHT22;6807;48.682;9.032;2023-01-13T05:28:12;7.50;27.90
13470;DHT22;6807;48.682;9.032;2023-01-13T05:31:20;8.60;23.40
13470;DHT22;6807;48.682;9.032;2023-01-13T05:37:02;7.20;23.70
13470;DHT22;6807;48.682;9.032;2023-01-13T05:46:17;7.70;18.00
13470;DHT22;6807;48.682;9.032;2023-01-13T05:48:48;8.60;22.00
13470;DHT22;6807;48.682;9.032;2023-01-13T05:51:19;8.60;32.20
13470;DHT22;6807;48.682;9.032;2023-01-13T05:53:53;8.80;15.70
13470;DHT22;6807;48.682;9.032;2023-01-13T05:56:43;8.80;10.60
13470;DHT22;6807;48.682;9.032;2023-01-13T05:59:12;8.70;33.50
13470;DHT22;6807;48.682;9.032;2023-01-13T06:05:18;8.20;27.40
13470;DHT22;6807;48.682;9.032;2023-01-13T06:08:06;8.90;30.90
13470;DHT22;6807;48.682;9.032;2023-01-13T06:11:05;7.80;44.60
13470;DHT22;6807;48.682;9.032;2023-01-13T06:13:52;8.60;42.30
13470;DHT22;6807;48.682;9.032;2023-01-13T06:16:31;8.70;42.20
13470;DHT22;6807;48.682;9.032;2023-01-13T06:18:59;8.70;26.70
13470;DHT22;6807;48.682;9.032;2023-01-13T11:11:49;6.60;99.90
13470;DHT22;6807;48.682;9.032;2023-01-13T11:14:23;6.50;99.90
13470;DHT22;6807;48.682;9.032;2023-01-13T11:17:26;6.50;99.90
13470;DHT22;6807;48.682;9.032;2023-01-13T11:20:06;6.50;99.90
13470;DHT22;6807;48.682;9.032;2023-01-13T11:22:43;6.50;99.90
13470;DHT22;6807;48.682;9.032;2023-01-13T11:25:16;6.50;99.90
13470;DHT22;6807;48.682;9.032;2023-01-13T11:27:53;6.40;99.90
13470;DHT22;6807;48.682;9.032;2023-01-13T11:30:31;6.40;99.90
13470;DHT22;6807;48.682;9.032;2023-01-13T11:33:26;6.30;99.90
13470;DHT22;6807;48.682;9.032;2023-01-13T11:36:12;6.20;99.90
13470;DHT22;6807;48.682;9.032;2023-01-13T11:38:48;6.10;99.90
13470;DHT22;6807;48.682;9.032;2023-01-13T11:41:29;6.10;99.90
13470;DHT22;6807;48.682;9.032;2023-01-13T11:44:07;6.00;99.90
13470;DHT22;6807;48.682;9.032;2023-01-13T11:46:38;6.00;99.90
13470;DHT22;6807;48.682;9.032;2023-01-13T11:49:09;6.10;99.90
13470;DHT22;6807;48.682;9.032;2023-01-13T11:51:47;6.00;99.90
13470;DHT22;6807;48.682;9.032;2023-01-13T11:54:31;6.00;99.90
13470;DHT22;6807;48.682;9.032;2023-01-13T11:57:36;6.30;99.90
13470;DHT22;6807;48.682;9.032;2023-01-13T12:00:19;6.40;99.90
13470;DHT22;6807;48.682;9.032;2023-01-13T12:02:56;6.50;99.90
13470;DHT22;6807;48.682;9.032;2023-01-13T12:05:35;6.60;99.90
13470;DHT22;6807;48.682;9.032;2023-01-13T12:08:13;6.70;99.90
13470;DHT22;6807;48.682;9.032;2023-01-13T12:10:50;6.70;99.90
13470;DHT22;6807;48.682;9.032;2023-01-13T12:13:26;6.80;99.90
13470;DHT22;6807;48.682;9.032;2023-01-13T12:16:17;7.70;99.90
13470;DHT22;6807;48.682;9.032;2023-01-13T12:22:08;8.60;67.60
13470;DHT22;6807;48.682;9.032;2023-01-13T12:24:46;8.80;34.00
13470;DHT22;6807;48.682;9.032;2023-01-13T12:27:21;11.50;55.50
13470;DHT22;6807;48.682;9.032;2023-01-13T12:29:53;12.80;57.20
13470;DHT22;6807;48.682;9.032;2023-01-13T12:32:47;13.60;65.90
13470;DHT22;6807;48.682;9.032;2023-01-13T12:35:27;13.50;53.20
13470;DHT22;6807;48.682;9.032;2023-01-13T12:38:02;13.90;68.30
13470;DHT22;6807;48.682;9.032;2023-01-13T12:40:41;12.90;36.30
13470;DHT22;6807;48.682;9.032;2023-01-13T12:43:21;12.70;18.40
13470;DHT22;6807;48.682;9.032;2023-01-13T12:46:41;13.80;68.60
13470;DHT22;6807;48.682;9.032;2023-01-13T12:49:26;12.70;30.40
13470;DHT22;6807;48.682;9.032;2023-01-13T12:52:10;13.90;71.90
13470;DHT22;6807;48.682;9.032;2023-01-13T12:55:18;14.10;48.50
13470;DHT22;6807;48.682;9.032;2023-01-13T12:57:59;13.30;25.50
13470;DHT22;6807;48.682;9.032;2023-01-13T13:00:34;12.70;1.00
13470;DHT22;6807;48.682;9.032;2023-01-13T13:03:27;12.40;1.00
13470;DHT22;6807;48.682;9.032;2023-01-13T13:06:02;12.20;1.00
13470;DHT22;6807;48.682;9.032;2023-01-13T13:08:45;12.40;1.00
13470;DHT22;6807;48.682;9.032;2023-01-13T13:11:22;12.40;1.00
13470;DHT22;6807;48.682;9.032;2023-01-13T13:17:41;12.90;1.00
13470;DHT22;6807;48.682;9.032;2023-01-13T13:26:34;11.50;1.00
13470;DHT22;6807;48.682;9.032;2023-01-13T13:29:32;12.20;1.00
13470;DHT22;6807;48.682;9.032;2023-01-13T13:32:28;11.90;1.00
13470;DHT22;6807;48.682;9.032;2023-01-13T13:35:13;11.30;1.00
13470;DHT22;6807;48.682;9.032;2023-01-13T13:37:57;11.70;1.00
13470;DHT22;6807;48.682;9.032;2023-01-13T13:40:45;11.60;1.00
13470;DHT22;6807;48.682;9.032;2023-01-13T13:43:38;11.80;1.00
13470;DHT22;6807;48.682;9.032;2023-01-13T13:46:44;11.80;1.00
13470;DHT22;6807;48.682;9.032;2023-01-13T13:49:39;10.00;1.00
13470;DHT22;6807;48.682;9.032;2023-01-13T13:52:13;9.60;1.00
13470;DHT22;6807;48.682;9.032;2023-01-13T13:54:45;9.20;1.00
13470;DHT22;6807;48.682;9.032;2023-01-13T13:57:17;9.70;1.00
13470;DHT22;6807;48.682;9.032;2023-01-13T13:59:47;9.10;1.00
13470;DHT22;6807;48.682;9.032;2023-01-13T14:02:19;8.90;1.00
13470;DHT22;6807;48.682;9.032;2023-01-13T14:04:49;8.50;1.00
13470;DHT22;6807;48.682;9.032;2023-01-13T14:07:17;8.20;1.00
13470;DHT22;6807;48.682;9.032;2023-01-13T14:09:48;7.90;1.00
13470;DHT22;6807;48.682;9.032;2023-01-13T14:12:18;7.70;1.00
13470;DHT22;6807;48.682;9.032;2023-01-13T14:14:48;7.70;1.00
13470;DHT22;6807;48.682;9.032;2023-01-13T14:17:23;7.60;1.00
13470;DHT22;6807;48.682;9.032;2023-01-13T14:19:54;7.60;1.00
13470;DHT22;6807;48.682;9.032;2023-01-13T14:22:23;7.30;66.50
13470;DHT22;6807;48.682;9.032;2023-01-13T14:24:50;7.90;87.50
13470;DHT22;6807;48.682;9.032;2023-01-13T14:30:31;6.60;99.90
13470;DHT22;6807;48.682;9.032;2023-01-13T14:32:59;6.40;99.90
13470;DHT22;6807;48.682;9.032;2023-01-13T14:35:27;6.40;99.90
13470;DHT22;6807;48.682;9.032;2023-01-13T14:38:00;6.30;99.90
13470;DHT22;6807;48.682;9.032;2023-01-13T14:40:42;6.30;99.90
13470;DHT22;6807;48.682;9.032;2023-01-13T14:43:30;6.40;99.90
13470;DHT22;6807;48.682;9.032;2023-01-13T14:46:00;6.40;99.90
13470;DHT22;6807;48.682;9.032;2023-01-13T14:48:32;6.30;99.90
13470;DHT22;6807;48.682;9.032;2023-01-13T14:51:02;6.10;99.90
13470;DHT22;6807;48.682;9.032;2023-01-13T14:53:47;6.10;99.90
13470;DHT22;6807;48.682;9.032;2023-01-13T14:56:47;6.10;99.90
13470;DHT22;6807;48.682;9.032;2023-01-13T14:59:45;6.30;99.90
13470;DHT22;6807;48.682;9.032;2023-01-13T15:02:40;6.50;99.90
13470;DHT22;6807;48.682;9.032;2023-01-13T15:05:33;6.40;99.90
13470;DHT22;6807;48.682;9.032;2023-01-13T15:08:21;6.50;99.90
13470;DHT22;6807;48.682;9.032;2023-01-13T15:10:52;6.50;99.90
13470;DHT22;6807;48.682;9.032;2023-01-13T15:13:26;6.40;99.90
13470;DHT22;6807;48.682;9.032;2023-01-13T15:15:58;6.30;99.90
13470;DHT22;6807;48.682;9.032;2023-01-13T15:18:28;6.20;99.90
13470;DHT22;6807;48.682;9.032;2023-01-13T15:20:57;6.20;99.90
13470;DHT22;6807;48.682;9.032;2023-01-13T15:23:25;6.10;99.90
13470;DHT22;6807;48.682;9.032;2023-01-13T15:25:53;6.10;99.90
13470;DHT22;6807;48.682;9.032;2023-01-13T15:28:24;5.90;99.90
13470;DHT22;6807;48.682;9.032;2023-01-13T15:30:55;5.90;99.90
13470;DHT22;6807;48.682;9.032;2023-01-13T15:33:25;5.80;99.90
13470;DHT22;6807;48.682;9.032;2023-01-13T15:35:54;5.70;99.90
13470;DHT22;6807;48.682;9.032;2023-01-13T15:38:22;5.60;99.90
13470;DHT22;6807;48.682;9.032;2023-01-13T15:41:02;5.50;99.90
13470;DHT22;6807;48.682;9.032;2023-01-13T15:43:39;5.40;99.90
13470;DHT22;6807;48.682;9.032;2023-01-13T15:46:25;5.40;99.90
13470;DHT22;6807;48.682;9.032;2023-01-13T15:49:15;5.40;99.90
13470;DHT22;6807;48.682;9.032;2023-01-13T15:51:48;5.40;99.90
13470;DHT22;6807;48.682;9.032;2023-01-13T15:54:16;5.30;99.90
13470;DHT22;6807;48.682;9.032;2023-01-13T15:56:45;5.40;99.90
13470;DHT22;6807;48.682;9.032;2023-01-13T15:59:15;5.20;99.90
13470;DHT22;6807;48.682;9.032;2023-01-13T16:01:44;5.10;99.90
13470;DHT22;6807;48.682;9.032;2023-01-13T16:04:12;5.10;99.90
13470;DHT22;6807;48.682;9.032;2023-01-13T16:06:39;5.00;99.90
13470;DHT22;6807;48.682;9.032;2023-01-13T16:09:10;4.90;99.90
13470;DHT22;6807;48.682;9.032;2023-01-13T16:11:39;4.80;99.90
13470;DHT22;6807;48.682;9.032;2023-01-13T16:14:06;4.80;99.90
13470;DHT22;6807;48.682;9.032;2023-01-13T16:16:38;4.80;99.90
13470;DHT22;6807;48.682;9.032;2023-01-13T16:19:19;4.80;99.90
13470;DHT22;6807;48.682;9.032;2023-01-13T16:21:49;4.80;99.90
13470;DHT22;6807;48.682;9.032;2023-01-13T16:24:19;4.70;99.90
13470;DHT22;6807;48.682;9.032;2023-01-13T16:26:46;4.60;99.90
13470;DHT22;6807;48.682;9.032;2023-01-13T16:29:13;4.40;99.90
13470;DHT22;6807;48.682;9.032;2023-01-13T16:31:40;4.30;99.90
13470;DHT22;6807;48.682;9.032;2023-01-13T16:34:07;4.10;99.90
13470;DHT22;6807;48.682;9.032;2023-01-13T16:36:37;4.00;99.90
13470;DHT22;6807;48.682;9.032;2023-01-13T16:39:08;4.00;99.90
13470;DHT22;6807;48.682;9.032;2023-01-13T16:42:04;3.60;99.90
13470;DHT22;6807;48.682;9.032;2023-01-13T16:44:44;3.90;99.90
13470;DHT22;6807;48.682;9.032;2023-01-13T16:47:43;3.80;99.90
13470;DHT22;6807;48.682;9.032;2023-01-13T16:50:57;3.70;99.90
13470;DHT22;6807;48.682;9.032;2023-01-13T16:54:07;3.70;99.90
13470;DHT22;6807;48.682;9.032;2023-01-13T17:02:48;4.10;99.90
13470;DHT22;6807;48.682;9.032;2023-01-13T17:05:32;4.40;99.90
13470;DHT22;6807;48.682;9.032;2023-01-13T17:08:04;4.70;99.90
13470;DHT22;6807;48.682;9.032;2023-01-13T17:10:31;5.10;99.90
13470;DHT22;6807;48.682;9.032;2023-01-13T17:13:01;5.30;94.00
13470;DHT22;6807;48.682;9.032;2023-01-13T17:15:38;5.40;93.10
13470;DHT22;6807;48.682;9.032;2023-01-13T17:18:05;5.40;91.70
13470;DHT22;6807;48.682;9.032;2023-01-13T17:20:39;5.40;95.70
13470;DHT22;6807;48.682;9.032;2023-01-13T17:23:19;5.30;92.90
13470;DHT22;6807;48.682;9.032;2023-01-13T17:25:46;5.30;97.30
13470;DHT22;6807;48.682;9.032;2023-01-13T17:28:13;5.30;96.60
13470;DHT22;6807;48.682;9.032;2023-01-13T17:30:43;5.30;99.90
13470;DHT22;6807;48.682;9.032;2023-01-13T17:33:10;5.30;98.60
13470;DHT22;6807;48.682;9.032;2023-01-13T17:35:38;5.40;99.90
13470;DHT22;6807;48.682;9.032;2023-01-13T17:38:06;5.50;96.10
13470;DHT22;6807;48.682;9.032;2023-01-13T17:40:33;5.50;98.80
13470;DHT22;6807;48.682;9.032;2023-01-13T17:43:02;5.50;99.90
13470;DHT22;6807;48.682;9.032;2023-01-13T17:45:30;5.50;99.90
13470;DHT22;6807;48.682;9.032;2023-01-13T17:47:59;5.50;99.90
13470;DHT22;6807;48.682;9.032;2023-01-13T17:50:27;5.50;99.90
13470;DHT22;6807;48.682;9.032;2023-01-13T17:56:19;5.60;99.90
13470;DHT22;6807;48.682;9.032;2023-01-13T17:58:51;5.60;99.90
13470;DHT22;6807;48.682;9.032;2023-01-13T18:01:20;5.60;99.90
13470;DHT22;6807;48.682;9.032;2023-01-13T18:03:49;5.60;99.90
13470;DHT22;6807;48.682;9.032;2023-01-13T18:06:19;5.50;99.90
13470;DHT22;6807;48.682;9.032;2023-01-13T18:08:48;5.40;92.80
13470;DHT22;6807;48.682;9.032;2023-01-13T18:11:17;5.20;89.40
13470;DHT22;6807;48.682;9.032;2023-01-13T18:13:48;5.10;99.90
13470;DHT22;6807;48.682;9.032;2023-01-13T18:16:17;5.00;95.90
13470;DHT22;6807;48.682;9.032;2023-01-13T18:18:46;4.90;93.90
13470;DHT22;6807;48.682;9.032;2023-01-13T18:21:24;4.80;97.60
13470;DHT22;6807;48.682;9.032;2023-01-13T18:24:11;4.70;99.90
13470;DHT22;6807;48.682;9.032;2023-01-13T18:26:56;4.60;99.90
13470;DHT22;6807;48.682;9.032;2023-01-13T18:29:40;4.50;99.90
13470;DHT22;6807;48.682;9.032;2023-01-13T18:32:10;4.40;99.90
13470;DHT22;6807;48.682;9.032;2023-01-13T18:34:44;4.30;99.90
13470;DHT22;6807;48.682;9.032;2023-01-13T18:37:16;4.30;99.90
13470;DHT22;6807;48.682;9.032;2023-01-13T18:39:43;4.30;99.90
13470;DHT22;6807;48.682;9.032;2023-01-13T18:42:11;4.10;99.90
13470;DHT22;6807;48.682;9.032;2023-01-13T18:44:52;4.10;99.90
13470;DHT22;6807;48.682;9.032;2023-01-13T18:47:20;4.10;99.90
13470;DHT22;6807;48.682;9.032;2023-01-13T18:49:47;4.10;99.90
13470;DHT22;6807;48.682;9.032;2023-01-13T18:52:17;4.00;99.90
13470;DHT22;6807;48.682;9.032;2023-01-13T18:54:44;3.90;99.90
13470;DHT22;6807;48.682;9.032;2023-01-13T18:57:12;3.90;99.90
13470;DHT22;6807;48.682;9.032;2023-01-13T18:59:41;3.70;99.90
13470;DHT22;6807;48.682;9.032;2023-01-13T19:02:13;3.60;99.90
13470;DHT22;6807;48.682;9.032;2023-01-13T19:04:42;3.60;99.90
13470;DHT22;6807;48.682;9.032;2023-01-13T19:07:12;3.40;99.90
13470;DHT22;6807;48.682;9.032;2023-01-13T19:09:49;3.50;99.90
13470;DHT22;6807;48.682;9.032;2023-01-13T19:12:17;3.40;99.90
13470;DHT22;6807;48.682;9.032;2023-01-13T19:14:52;3.40;99.90
13470;DHT22;6807;48.682;9.032;2023-01-13T19:17:22;3.40;99.90
13470;DHT22;6807;48.682;9.032;2023-01-13T19:19:52;3.30;99.90
13470;DHT22;6807;48.682;9.032;2023-01-13T19:22:25;3.20;99.90
13470;DHT22;6807;48.682;9.032;2023-01-13T19:24:57;3.30;99.90
13470;DHT22;6807;48.682;9.032;2023-01-13T19:27:31;3.30;99.90
13470;DHT22;6807;48.682;9.032;2023-01-13T19:29:59;3.30;99.90
13470;DHT22;6807;48.682;9.032;2023-01-13T19:32:28;3.30;99.90
13470;DHT22;6807;48.682;9.032;2023-01-13T19:34:58;3.30;99.90
13470;DHT22;6807;48.682;9.032;2023-01-13T19:37:29;3.40;99.90
13470;DHT22;6807;48.682;9.032;2023-01-13T19:40:03;3.50;99.90
13470;DHT22;6807;48.682;9.032;2023-01-13T19:42:36;3.60;99.90
13470;DHT22;6807;48.682;9.032;2023-01-13T19:45:22;3.60;99.90
13470;DHT22;6807;48.682;9.032;2023-01-13T19:47:53;3.70;99.90
13470;DHT22;6807;48.682;9.032;2023-01-13T19:50:21;3.70;99.90
13470;DHT22;6807;48.682;9.032;2023-01-13T19:52:56;3.80;99.90
13470;DHT22;6807;48.682;9.032;2023-01-13T19:55:49;3.80;99.90
13470;DHT22;6807;48.682;9.032;2023-01-13T20:01:23;3.80;99.90
13470;DHT22;6807;48.682;9.032;2023-01-13T20:03:59;3.80;99.90
13470;DHT22;6807;48.682;9.032;2023-01-13T20:06:28;3.80;99.90
13470;DHT22;6807;48.682;9.032;2023-01-13T20:08:56;3.80;99.90
13470;DHT22;6807;48.682;9.032;2023-01-13T20:11:24;3.90;99.90
13470;DHT22;6807;48.682;9.032;2023-01-13T20:13:56;3.90;99.90
13470;DHT22;6807;48.682;9.032;2023-01-13T20:16:24;3.90;99.90
13470;DHT22;6807;48.682;9.032;2023-01-13T20:18:51;3.80;99.90
13470;DHT22;6807;48.682;9.032;2023-01-13T20:21:19;3.80;99.90
13470;DHT22;6807;48.682;9.032;2023-01-13T20:23:51;3.70;99.90
13470;DHT22;6807;48.682;9.032;2023-01-13T20:26:19;3.70;99.90
13470;DHT22;6807;48.682;9.032;2023-01-13T20:28:47;3.70;99.90
13470;DHT22;6807;48.682;9.032;2023-01-13T20:31:15;3.60;99.90
13470;DHT22;6807;48.682;9.032;2023-01-13T20:33:48;3.60;99.90
13470;DHT22;6807;48.682;9.032;2023-01-13T20:36:31;3.60;99.90
13470;DHT22;6807;48.682;9.032;2023-01-13T20:39:03;3.70;99.90
13470;DHT22;6807;48.682;9.032;2023-01-13T20:41:30;3.80;99.90
13470;DHT22;6807;48.682;9.032;2023-01-13T20:44:16;3.80;99.90
13470;DHT22;6807;48.682;9.032;2023-01-13T20:46:44;3.90;99.90
13470;DHT22;6807;48.682;9.032;2023-01-13T20:49:13;3.90;99.90
13470;DHT22;6807;48.682;9.032;2023-01-13T20:51:41;4.00;99.90
13470;DHT22;6807;48.682;9.032;2023-01-13T20:54:08;4.00;99.90
13470;DHT22;6807;48.682;9.032;2023-01-13T20:56:36;4.00;99.90
13470;DHT22;6807;48.682;9.032;2023-01-13T20:59:03;4.10;99.90
13470;DHT22;6807;48.682;9.032;2023-01-13T21:01:32;4.00;99.90
13470;DHT22;6807;48.682;9.032;2023-01-13T21:03:59;4.10;99.90
13470;DHT22;6807;48.682;9.032;2023-01-13T21:06:31;4.10;99.90
13470;DHT22;6807;48.682;9.032;2023-01-13T21:09:07;4.10;99.90
13470;DHT22;6807;48.682;9.032;2023-01-13T21:11:42;4.10;99.90
13470;DHT22;6807;48.682;9.032;2023-01-13T21:14:30;4.20;99.90
13470;DHT22;6807;48.682;9.032;2023-01-13T21:17:18;3.40;99.90
13470;DHT22;6807;48.682;9.032;2023-01-13T21:20:02;4.20;99.90
13470;DHT22;6807;48.682;9.032;2023-01-13T21:22:38;4.10;99.90
13470;DHT22;6807;48.682;9.032;2023-01-13T21:28:04;4.20;99.90
13470;DHT22;6807;48.682;9.032;2023-01-13T21:30:33;4.10;99.90
13470;DHT22;6807;48.682;9.032;2023-01-13T21:33:01;4.10;99.90
13470;DHT22;6807;48.682;9.032;2023-01-13T21:35:37;4.10;99.90
13470;DHT22;6807;48.682;9.032;2023-01-13T21:38:14;4.10;99.90
13470;DHT22;6807;48.682;9.032;2023-01-13T21:41:17;4.20;99.90
13470;DHT22;6807;48.682;9.032;2023-01-13T21:47:41;4.10;99.90
13470;DHT22;6807;48.682;9.032;2023-01-13T21:50:18;4.10;99.90
13470;DHT22;6807;48.682;9.032;2023-01-13T21:52:51;4.20;99.90
13470;DHT22;6807;48.682;9.032;2023-01-13T21:55:22;4.10;99.90
13470;DHT22;6807;48.682;9.032;2023-01-13T21:57:58;4.10;99.90
13470;DHT22;6807;48.682;9.032;2023-01-13T22:00:33;4.20;99.90
13470;DHT22;6807;48.682;9.032;2023-01-13T22:03:06;4.10;99.90
13470;DHT22;6807;48.682;9.032;2023-01-13T22:05:36;4.30;99.90
13470;DHT22;6807;48.682;9.032;2023-01-13T22:08:04;4.20;99.90
13470;DHT22;6807;48.682;9.032;2023-01-13T22:13:26;4.60;99.90
13470;DHT22;6807;48.682;9.032;2023-01-13T22:16:10;4.60;99.90
13470;DHT22;6807;48.682;9.032;2023-01-13T22:18:49;4.60;99.90
13470;DHT22;6807;48.682;9.032;2023-01-13T22:25:58;5.90;99.90
13470;DHT22;6807;48.682;9.032;2023-01-13T22:28:42;3.80;99.90
13470;DHT22;6807;48.682;9.032;2023-01-13T22:31:10;4.40;99.90
13470;DHT22;6807;48.682;9.032;2023-01-13T22:33:38;3.60;99.90
13470;DHT22;6807;48.682;9.032;2023-01-13T22:36:06;3.00;99.90
13470;DHT22;6807;48.682;9.032;2023-01-13T22:38:34;4.00;99.90
13470;DHT22;6807;48.682;9.032;2023-01-13T22:41:07;3.90;99.90
13470;DHT22;6807;48.682;9.032;2023-01-13T22:43:35;3.90;99.90
13470;DHT22;6807;48.682;9.032;2023-01-13T22:46:05;3.90;99.90
13470;DHT22;6807;48.682;9.032;2023-01-13T22:48:33;3.80;99.90
13470;DHT22;6807;48.682;9.032;2023-01-13T22:51:03;3.90;99.90
13470;DHT22;6807;48.682;9.032;2023-01-13T22:53:30;3.90;99.90
13470;DHT22;6807;48.682;9.032;2023-01-13T22:55:58;3.90;1.00
13470;DHT22;6807;48.682;9.032;2023-01-13T22:58:28;3.90;1.00
13470;DHT22;6807;48.682;9.032;2023-01-13T23:00:55;3.90;1.00
13470;DHT22;6807;48.682;9.032;2023-01-13T23:03:32;3.80;1.00
13470;DHT22;6807;48.682;9.032;2023-01-13T23:05:59;2.60;1.00
13470;DHT22;6807;48.682;9.032;2023-01-13T23:08:26;3.50;1.00
